createdAt,value
2017-11-27T00:00:41.757Z,2.23
2017-11-27T00:03:12.535Z,2.17
2017-11-27T00:05:43.277Z,2.30
2017-11-27T00:08:14.056Z,2.07
2017-11-27T00:10:44.816Z,2.30
2017-11-27T00:13:15.582Z,2.20
2017-11-27T00:15:46.337Z,2.20
2017-11-27T00:18:17.114Z,2.20
2017-11-27T00:20:47.877Z,2.27
2017-11-27T00:23:18.655Z,2.10
2017-11-27T00:25:49.436Z,2.40
2017-11-27T00:28:20.238Z,2.40
2017-11-27T00:30:50.974Z,2.10
2017-11-27T00:33:21.746Z,2.20
2017-11-27T00:35:52.490Z,2.23
2017-11-27T00:38:23.274Z,2.20
2017-11-27T00:40:54.026Z,2.00
2017-11-27T00:43:24.798Z,2.23
2017-11-27T00:45:55.547Z,2.30
2017-11-27T00:48:26.338Z,2.00
2017-11-27T00:50:57.096Z,2.10
2017-11-27T00:53:27.867Z,2.00
2017-11-27T00:55:58.645Z,2.13
2017-11-27T00:58:29.410Z,2.20
2017-11-27T01:01:00.186Z,2.10
2017-11-27T01:03:30.947Z,2.20
2017-11-27T01:06:01.726Z,2.10
2017-11-27T01:08:32.506Z,2.10
2017-11-27T01:11:03.287Z,2.10
2017-11-27T01:13:34.051Z,2.10
2017-11-27T01:16:04.833Z,2.17
2017-11-27T01:18:35.607Z,2.00
2017-11-27T01:21:06.361Z,2.00
2017-11-27T01:23:37.160Z,1.93
2017-11-27T01:26:07.916Z,1.97
2017-11-27T01:28:38.686Z,1.90
2017-11-27T01:31:09.446Z,1.97
2017-11-27T01:33:40.212Z,2.03
2017-11-27T01:36:10.966Z,2.03
2017-11-27T01:38:41.745Z,1.97
2017-11-27T01:41:12.517Z,2.10
2017-11-27T01:43:43.265Z,2.00
2017-11-27T01:46:14.023Z,1.83
2017-11-27T01:48:44.814Z,2.00
2017-11-27T01:51:15.579Z,2.00
2017-11-27T01:53:46.370Z,2.17
2017-11-27T01:56:17.126Z,2.00
2017-11-27T01:58:47.888Z,1.83
2017-11-27T02:01:18.641Z,2.07
2017-11-27T02:03:49.418Z,1.93
2017-11-27T02:06:20.174Z,1.80
2017-11-27T02:08:50.944Z,2.13
2017-11-27T02:11:21.713Z,1.90
2017-11-27T02:13:52.465Z,2.00
2017-11-27T02:16:23.238Z,2.00
2017-11-27T02:18:53.987Z,2.00
2017-11-27T02:21:24.766Z,2.03
2017-11-27T02:23:55.557Z,1.80
2017-11-27T02:26:26.313Z,2.00
2017-11-27T02:28:57.073Z,2.03
2017-11-27T02:31:27.853Z,2.10
2017-11-27T02:33:58.605Z,1.90
2017-11-27T02:36:29.429Z,1.90
2017-11-27T02:39:00.226Z,1.90
2017-11-27T02:41:30.977Z,2.00
2017-11-27T02:44:01.746Z,2.00
2017-11-27T02:46:32.543Z,1.80
2017-11-27T02:49:03.325Z,1.90
2017-11-27T02:51:34.106Z,1.70
2017-11-27T02:54:04.861Z,1.70
2017-11-27T02:56:35.661Z,2.00
2017-11-27T02:59:06.393Z,1.70
2017-11-27T03:01:37.162Z,1.90
2017-11-27T03:04:07.914Z,1.80
2017-11-27T03:06:38.682Z,1.80
2017-11-27T03:09:09.430Z,2.00
2017-11-27T03:11:40.202Z,2.00
2017-11-27T03:14:10.946Z,1.90
2017-11-27T03:19:30.322Z,2.10
2017-11-27T03:22:01.113Z,1.53
2017-11-27T03:24:31.914Z,1.90
2017-11-27T03:27:02.686Z,1.87
2017-11-27T03:29:33.441Z,1.60
2017-11-27T03:32:04.221Z,1.73
2017-11-27T03:34:34.962Z,1.90
2017-11-27T03:37:05.745Z,1.70
2017-11-27T03:39:36.503Z,1.80
2017-11-27T03:42:07.272Z,1.80
2017-11-27T03:44:38.045Z,1.70
2017-11-27T03:47:08.806Z,1.87
2017-11-27T03:49:39.557Z,1.80
2017-11-27T03:52:10.318Z,1.90
2017-11-27T03:54:41.077Z,1.73
2017-11-27T03:57:11.837Z,1.60
2017-11-27T03:59:42.595Z,1.80
2017-11-27T04:02:13.365Z,1.67
2017-11-27T04:04:44.156Z,1.50
2017-11-27T04:07:14.917Z,1.80
2017-11-27T04:09:45.686Z,1.80
2017-11-27T04:12:16.439Z,1.60
2017-11-27T04:14:47.217Z,1.50
2017-11-27T04:17:17.980Z,1.57
2017-11-27T04:19:48.744Z,1.67
2017-11-27T04:22:19.482Z,1.70
2017-11-27T04:24:50.435Z,1.60
2017-11-27T04:27:21.186Z,1.40
2017-11-27T04:29:51.975Z,1.70
2017-11-27T04:32:22.758Z,1.80
2017-11-27T04:34:53.514Z,1.70
2017-11-27T04:37:24.285Z,1.70
2017-11-27T04:39:55.078Z,1.60
2017-11-27T04:42:25.822Z,1.43
2017-11-27T04:44:56.707Z,1.60
2017-11-27T04:47:27.469Z,1.43
2017-11-27T04:49:58.238Z,1.70
2017-11-27T04:52:29.037Z,1.50
2017-11-27T04:54:59.786Z,1.60
2017-11-27T04:57:30.556Z,1.70
2017-11-27T05:00:01.320Z,1.60
2017-11-27T05:02:32.107Z,1.50
2017-11-27T05:05:02.855Z,1.50
2017-11-27T05:07:33.625Z,1.60
2017-11-27T05:10:04.386Z,1.43
2017-11-27T05:12:35.183Z,1.43
2017-11-27T05:15:05.956Z,1.60
2017-11-27T05:17:36.738Z,1.50
2017-11-27T05:20:07.505Z,1.60
2017-11-27T05:22:38.261Z,1.50
2017-11-27T05:25:09.032Z,1.57
2017-11-27T05:27:39.807Z,1.50
2017-11-27T05:30:10.606Z,1.83
2017-11-27T05:32:41.370Z,1.70
2017-11-27T05:35:12.155Z,1.60
2017-11-27T05:37:42.950Z,1.60
2017-11-27T05:40:13.725Z,1.40
2017-11-27T05:42:44.478Z,1.70
2017-11-27T05:45:15.252Z,1.60
2017-11-27T05:47:46.014Z,1.50
2017-11-27T05:50:16.778Z,1.40
2017-11-27T05:52:47.545Z,1.27
2017-11-27T05:55:18.313Z,1.70
2017-11-27T05:57:49.085Z,1.20
2017-11-27T06:00:19.846Z,1.30
2017-11-27T06:02:50.600Z,1.50
2017-11-27T06:05:21.364Z,1.40
2017-11-27T06:07:52.130Z,1.60
2017-11-27T06:10:22.898Z,1.43
2017-11-27T06:12:53.668Z,1.40
2017-11-27T06:15:24.442Z,1.67
2017-11-27T06:17:55.190Z,1.50
2017-11-27T06:20:25.979Z,1.40
2017-11-27T06:22:56.743Z,1.60
2017-11-27T06:25:27.637Z,1.63
2017-11-27T06:27:58.366Z,1.80
2017-11-27T06:30:29.144Z,1.60
2017-11-27T06:32:59.901Z,1.63
2017-11-27T06:35:30.670Z,1.60
2017-11-27T06:38:01.463Z,1.40
2017-11-27T06:40:32.230Z,1.77
2017-11-27T06:43:03.014Z,1.60
2017-11-27T06:45:33.767Z,1.60
2017-11-27T06:48:04.541Z,1.73
2017-11-27T06:50:35.308Z,1.50
2017-11-27T06:53:06.081Z,1.60
2017-11-27T06:55:36.857Z,1.50
2017-11-27T06:58:07.643Z,1.50
2017-11-27T07:00:38.410Z,1.50
2017-11-27T07:03:09.182Z,1.47
2017-11-27T07:05:39.928Z,1.60
2017-11-27T07:08:10.690Z,1.60
2017-11-27T07:10:41.437Z,1.60
2017-11-27T07:13:12.270Z,1.50
2017-11-27T07:15:43.242Z,1.67
2017-11-27T07:18:13.986Z,1.70
2017-11-27T07:20:44.750Z,1.60
2017-11-27T07:23:15.510Z,1.77
2017-11-27T07:25:46.282Z,1.70
2017-11-27T07:28:17.050Z,1.60
2017-11-27T07:30:47.820Z,1.80
2017-11-27T07:33:18.598Z,1.60
2017-11-27T07:35:49.366Z,1.67
2017-11-27T07:38:20.170Z,1.60
2017-11-27T07:40:50.930Z,1.50
2017-11-27T07:43:21.703Z,1.40
2017-11-27T07:45:52.460Z,1.50
2017-11-27T07:48:23.269Z,1.70
2017-11-27T07:50:54.010Z,1.50
2017-11-27T07:53:24.796Z,1.70
2017-11-27T07:55:55.547Z,1.50
2017-11-27T07:58:26.322Z,1.70
2017-11-27T08:00:57.072Z,1.63
2017-11-27T08:03:27.857Z,1.70
2017-11-27T08:05:58.630Z,1.63
2017-11-27T08:08:29.382Z,1.70
2017-11-27T08:11:00.141Z,1.70
2017-11-27T08:13:30.890Z,1.53
2017-11-27T08:16:01.668Z,1.37
2017-11-27T08:18:32.413Z,1.60
2017-11-27T08:21:03.174Z,1.70
2017-11-27T08:23:33.969Z,1.43
2017-11-27T08:26:04.731Z,1.50
2017-11-27T08:28:35.529Z,1.40
2017-11-27T08:31:06.266Z,1.70
2017-11-27T08:33:37.059Z,1.67
2017-11-27T08:36:07.809Z,1.60
2017-11-27T08:38:38.604Z,1.67
2017-11-27T08:41:09.382Z,1.40
2017-11-27T08:43:40.160Z,1.50
2017-11-27T08:46:10.917Z,1.60
2017-11-27T08:48:41.686Z,1.53
2017-11-27T08:51:12.458Z,1.40
2017-11-27T08:53:43.221Z,1.80
2017-11-27T08:56:14.001Z,1.60
2017-11-27T08:58:44.778Z,1.73
2017-11-27T09:01:15.534Z,1.67
2017-11-27T09:03:46.310Z,1.90
2017-11-27T09:06:17.070Z,1.70
2017-11-27T09:08:47.842Z,1.70
2017-11-27T09:11:18.610Z,1.70
2017-11-27T09:13:49.399Z,2.00
2017-11-27T09:16:20.149Z,1.60
2017-11-27T09:18:50.934Z,1.80
2017-11-27T09:21:21.688Z,1.70
2017-11-27T09:23:52.481Z,1.80
2017-11-27T09:26:23.390Z,1.70
2017-11-27T09:28:54.145Z,1.83
2017-11-27T09:31:24.920Z,1.73
2017-11-27T09:33:55.716Z,1.50
2017-11-27T09:36:26.478Z,1.80
2017-11-27T09:38:57.240Z,1.77
2017-11-27T09:41:28.008Z,1.70
2017-11-27T09:43:58.790Z,1.60
2017-11-27T09:46:29.541Z,1.60
2017-11-27T09:49:00.338Z,1.60
2017-11-27T09:51:31.096Z,1.80
2017-11-27T09:54:01.855Z,1.70
2017-11-27T09:56:32.609Z,1.47
2017-11-27T09:59:03.374Z,1.50
2017-11-27T10:01:34.130Z,1.67
2017-11-27T10:04:04.898Z,1.50
2017-11-27T10:06:35.679Z,1.60
2017-11-27T10:09:06.458Z,1.70
2017-11-27T10:11:37.259Z,1.50
2017-11-27T10:14:08.278Z,1.70
2017-11-27T10:16:39.059Z,1.67
2017-11-27T10:19:09.814Z,1.40
2017-11-27T10:21:40.589Z,1.73
2017-11-27T10:24:11.349Z,1.60
2017-11-27T10:26:42.126Z,1.60
2017-11-27T10:29:12.909Z,1.60
2017-11-27T10:31:43.681Z,1.50
2017-11-27T10:34:14.429Z,1.50
2017-11-27T10:36:45.207Z,1.53
2017-11-27T10:39:15.978Z,1.57
2017-11-27T10:41:46.749Z,1.30
2017-11-27T10:44:17.510Z,1.67
2017-11-27T10:46:48.281Z,1.40
2017-11-27T10:49:19.044Z,1.60
2017-11-27T10:51:49.818Z,1.33
2017-11-27T10:54:20.574Z,1.53
2017-11-27T10:56:51.332Z,1.30
2017-11-27T10:59:22.081Z,1.20
2017-11-27T11:01:52.862Z,1.50
2017-11-27T11:04:23.624Z,1.50
2017-11-27T11:06:54.402Z,1.10
2017-11-27T11:09:25.170Z,1.60
2017-11-27T11:11:55.934Z,1.70
2017-11-27T11:14:26.685Z,1.50
2017-11-27T11:16:57.462Z,1.40
2017-11-27T11:19:28.221Z,1.20
2017-11-27T11:21:59.000Z,1.30
2017-11-27T11:24:29.750Z,1.23
2017-11-27T11:27:00.535Z,1.20
2017-11-27T11:29:31.309Z,1.20
2017-11-27T11:32:02.074Z,1.50
2017-11-27T11:34:32.856Z,1.50
2017-11-27T11:37:03.615Z,1.23
2017-11-27T11:39:34.383Z,1.50
2017-11-27T11:42:05.155Z,1.30
2017-11-27T11:44:35.941Z,1.27
2017-11-27T11:47:06.710Z,1.50
2017-11-27T11:49:37.457Z,1.43
2017-11-27T11:52:08.226Z,1.20
2017-11-27T11:54:39.016Z,1.50
2017-11-27T11:57:09.774Z,1.37
2017-11-27T11:59:40.568Z,1.50
2017-11-27T12:02:11.332Z,1.30
2017-11-27T12:04:42.094Z,1.30
2017-11-27T12:07:12.865Z,1.40
2017-11-27T12:09:43.630Z,1.37
2017-11-27T12:12:14.396Z,1.30
2017-11-27T12:14:45.162Z,1.27
2017-11-27T12:17:15.926Z,1.40
2017-11-27T12:19:46.684Z,1.10
2017-11-27T12:22:17.451Z,1.40
2017-11-27T12:24:48.251Z,1.40
2017-11-27T12:27:19.090Z,1.27
2017-11-27T12:29:49.865Z,1.33
2017-11-27T12:32:20.625Z,1.40
2017-11-27T12:34:51.411Z,1.00
2017-11-27T12:37:22.172Z,1.40
2017-11-27T12:39:52.959Z,1.40
2017-11-27T12:42:23.722Z,1.20
2017-11-27T12:44:54.510Z,1.30
2017-11-27T12:47:25.233Z,1.10
2017-11-27T12:49:56.026Z,1.30
2017-11-27T12:52:26.810Z,1.10
2017-11-27T12:54:57.624Z,1.30
2017-11-27T12:57:28.369Z,1.20
2017-11-27T12:59:59.262Z,1.00
2017-11-27T13:02:30.014Z,1.17
2017-11-27T13:05:00.805Z,1.30
2017-11-27T13:07:31.538Z,1.30
2017-11-27T13:10:02.338Z,1.37
2017-11-27T13:12:33.094Z,1.33
2017-11-27T13:15:03.851Z,1.40
2017-11-27T13:17:34.629Z,1.50
2017-11-27T13:20:05.389Z,1.23
2017-11-27T13:22:36.182Z,1.00
2017-11-27T13:25:06.921Z,1.30
2017-11-27T13:27:37.689Z,1.10
2017-11-27T13:30:08.458Z,1.23
2017-11-27T13:32:39.253Z,1.23
2017-11-27T13:35:10.011Z,1.30
2017-11-27T13:37:40.792Z,1.23
2017-11-27T13:40:11.528Z,1.30
2017-11-27T13:42:42.305Z,1.07
2017-11-27T13:45:13.060Z,1.20
2017-11-27T13:47:43.838Z,1.03
2017-11-27T13:50:14.607Z,1.10
2017-11-27T13:52:45.366Z,1.40
2017-11-27T13:55:16.156Z,1.40
2017-11-27T13:57:46.914Z,1.10
2017-11-27T14:00:17.659Z,1.00
2017-11-27T14:02:48.450Z,1.20
2017-11-27T14:05:19.237Z,1.30
2017-11-27T14:07:49.988Z,1.27
2017-11-27T14:10:20.858Z,1.10
2017-11-27T14:12:51.629Z,1.23
2017-11-27T14:15:22.378Z,1.17
2017-11-27T14:17:53.134Z,1.17
2017-11-27T14:20:23.910Z,1.40
2017-11-27T14:22:54.657Z,1.20
2017-11-27T14:25:25.468Z,1.20
2017-11-27T14:27:56.218Z,1.17
2017-11-27T14:30:26.987Z,1.10
2017-11-27T14:32:57.740Z,1.13
2017-11-27T14:35:28.508Z,1.10
2017-11-27T14:37:59.290Z,1.07
2017-11-27T14:40:30.038Z,1.20
2017-11-27T14:43:00.840Z,1.33
2017-11-27T14:45:31.591Z,1.10
2017-11-27T14:48:02.360Z,0.90
2017-11-27T14:50:33.142Z,1.03
2017-11-27T14:53:03.953Z,1.20
2017-11-27T14:55:34.698Z,1.30
2017-11-27T14:58:05.457Z,1.30
2017-11-27T15:00:36.229Z,1.23
2017-11-27T15:03:07.012Z,1.30
2017-11-27T15:05:37.778Z,1.20
2017-11-27T15:08:08.560Z,1.10
2017-11-27T15:10:39.316Z,1.00
2017-11-27T15:13:10.074Z,1.10
2017-11-27T15:15:40.862Z,1.17
2017-11-27T15:18:11.633Z,1.37
2017-11-27T15:20:42.380Z,1.20
2017-11-27T15:23:13.142Z,1.03
2017-11-27T15:25:43.910Z,1.13
2017-11-27T15:28:14.654Z,1.13
2017-11-27T15:30:45.427Z,1.17
2017-11-27T15:33:16.255Z,1.20
2017-11-27T15:35:46.971Z,1.17
2017-11-27T15:38:17.761Z,1.10
2017-11-27T15:40:48.507Z,1.23
2017-11-27T15:43:19.305Z,1.20
2017-11-27T15:45:50.050Z,1.13
2017-11-27T15:48:21.851Z,1.20
2017-11-27T15:50:52.693Z,1.20
2017-11-27T15:53:23.455Z,1.17
2017-11-27T15:55:54.251Z,1.03
2017-11-27T15:58:25.014Z,1.17
2017-11-27T16:00:55.791Z,1.10
2017-11-27T16:03:26.557Z,1.20
2017-11-27T16:05:57.370Z,1.00
2017-11-27T16:08:28.107Z,1.20
2017-11-27T16:10:58.880Z,1.10
2017-11-27T16:13:29.625Z,1.20
2017-11-27T16:16:00.402Z,1.40
2017-11-27T16:18:31.171Z,1.30
2017-11-27T16:21:01.934Z,1.20
2017-11-27T16:23:32.703Z,1.13
2017-11-27T16:26:03.466Z,1.03
2017-11-27T16:28:34.249Z,1.20
2017-11-27T16:31:05.026Z,1.10
2017-11-27T16:33:35.806Z,1.10
2017-11-27T16:36:06.583Z,1.10
2017-11-27T16:38:37.365Z,1.00
2017-11-27T16:41:08.122Z,1.10
2017-11-27T16:43:38.886Z,1.20
2017-11-27T16:46:09.666Z,1.23
2017-11-27T16:48:40.441Z,1.10
2017-11-27T16:51:11.217Z,1.10
2017-11-27T16:53:41.986Z,1.13
2017-11-27T16:56:12.777Z,1.30
2017-11-27T16:58:43.508Z,1.20
2017-11-27T17:01:14.288Z,1.00
2017-11-27T17:03:45.029Z,1.00
2017-11-27T17:06:15.807Z,1.23
2017-11-27T17:08:46.570Z,1.07
2017-11-27T17:11:17.518Z,0.90
2017-11-27T17:13:48.301Z,1.20
2017-11-27T17:16:19.066Z,1.20
2017-11-27T17:18:49.838Z,1.30
2017-11-27T17:21:20.586Z,1.30
2017-11-27T17:23:51.452Z,1.00
2017-11-27T17:26:22.214Z,1.30
2017-11-27T17:28:52.990Z,1.00
2017-11-27T17:31:23.748Z,1.27
2017-11-27T17:33:54.542Z,1.10
2017-11-27T17:36:25.285Z,1.30
2017-11-27T17:38:56.197Z,1.17
2017-11-27T17:41:26.954Z,1.00
2017-11-27T17:43:57.737Z,1.20
2017-11-27T17:46:28.485Z,1.13
2017-11-27T17:48:59.279Z,1.27
2017-11-27T17:51:30.082Z,1.00
2017-11-27T17:54:00.847Z,1.27
2017-11-27T17:56:31.638Z,1.10
2017-11-27T17:59:02.431Z,1.10
2017-11-27T18:01:33.227Z,1.10
2017-11-27T18:04:04.030Z,1.10
2017-11-27T18:06:34.825Z,1.20
2017-11-27T18:09:05.749Z,1.13
2017-11-27T18:11:37.092Z,1.00
2017-11-27T18:14:07.905Z,1.10
2017-11-27T18:16:38.721Z,0.90
2017-11-27T18:19:09.618Z,1.13
2017-11-27T18:21:40.443Z,1.00
2017-11-27T18:24:11.230Z,1.20
2017-11-27T18:26:42.029Z,1.20
2017-11-27T18:29:12.867Z,1.20
2017-11-27T18:31:43.691Z,1.00
2017-11-27T18:34:14.481Z,0.87
2017-11-27T18:36:45.603Z,0.97
2017-11-27T18:39:16.347Z,1.00
2017-11-27T18:41:47.154Z,1.23
2017-11-27T18:44:17.902Z,1.20
2017-11-27T18:46:48.681Z,1.00
2017-11-27T18:49:19.451Z,1.03
2017-11-27T18:51:50.219Z,0.90
2017-11-27T18:54:21.002Z,1.20
2017-11-27T18:56:51.770Z,1.00
2017-11-27T18:59:22.572Z,1.30
2017-11-27T19:01:53.347Z,1.20
2017-11-27T19:04:24.120Z,1.60
2017-11-27T19:06:54.893Z,0.80
2017-11-27T19:09:25.695Z,1.03
2017-11-27T19:11:56.440Z,0.90
2017-11-27T19:14:27.220Z,1.10
2017-11-27T19:16:58.019Z,1.17
2017-11-27T19:19:28.784Z,1.20
2017-11-27T19:21:59.578Z,1.23
2017-11-27T19:24:30.327Z,1.23
2017-11-27T19:27:01.108Z,1.20
2017-11-27T19:29:31.898Z,1.20
2017-11-27T19:32:02.647Z,1.10
2017-11-27T19:34:33.460Z,0.83
2017-11-27T19:37:04.234Z,0.87
2017-11-27T19:39:35.018Z,1.60
2017-11-27T19:42:05.847Z,1.40
2017-11-27T19:44:36.586Z,1.30
2017-11-27T19:47:07.387Z,1.43
2017-11-27T19:49:38.139Z,1.50
2017-11-27T19:52:08.914Z,1.40
2017-11-27T19:54:39.699Z,1.50
2017-11-27T19:57:10.454Z,1.40
2017-11-27T19:59:41.254Z,1.60
2017-11-27T20:02:12.027Z,1.93
2017-11-27T20:04:42.810Z,1.30
2017-11-27T20:07:13.598Z,1.43
2017-11-27T20:09:44.367Z,1.40
2017-11-27T20:12:15.150Z,1.43
2017-11-27T20:14:45.950Z,1.60
2017-11-27T20:17:16.760Z,1.50
2017-11-27T20:19:47.511Z,1.40
2017-11-27T20:22:18.326Z,1.10
2017-11-27T20:24:49.089Z,1.20
2017-11-27T20:27:19.874Z,1.33
2017-11-27T20:29:50.671Z,1.20
2017-11-27T20:32:21.505Z,1.20
2017-11-27T20:34:52.283Z,1.20
2017-11-27T20:37:23.066Z,1.10
2017-11-27T20:39:54.897Z,1.40
2017-11-27T20:42:26.698Z,1.40
2017-11-27T20:44:57.488Z,1.20
2017-11-27T20:47:28.263Z,1.20
2017-11-27T20:49:59.066Z,0.90
2017-11-27T20:52:30.418Z,1.30
2017-11-27T20:55:01.203Z,1.60
2017-11-27T20:57:32.010Z,1.50
2017-11-27T21:00:02.769Z,1.10
2017-11-27T21:02:33.561Z,1.80
2017-11-27T21:05:04.340Z,1.47
2017-11-27T21:07:35.108Z,1.40
2017-11-27T21:10:05.868Z,1.57
2017-11-27T21:12:37.033Z,1.20
2017-11-27T21:15:07.864Z,1.03
2017-11-27T21:17:38.700Z,1.60
2017-11-27T21:20:09.477Z,1.07
2017-11-27T21:22:40.268Z,1.20
2017-11-27T21:25:11.071Z,1.23
2017-11-27T21:27:41.867Z,0.97
2017-11-27T21:30:12.644Z,1.20
2017-11-27T21:32:43.522Z,1.07
2017-11-27T21:35:14.336Z,1.10
2017-11-27T21:37:45.099Z,1.10
2017-11-27T21:40:15.889Z,1.00
2017-11-27T21:42:46.687Z,1.10
2017-11-27T21:45:17.495Z,1.10
2017-11-27T21:47:48.348Z,1.10
2017-11-27T21:50:19.104Z,1.13
2017-11-27T21:52:49.930Z,1.20
2017-11-27T21:55:20.804Z,1.20
2017-11-27T21:57:51.565Z,1.40
2017-11-27T22:00:22.745Z,1.07
2017-11-27T22:02:53.478Z,0.93
2017-11-27T22:05:24.246Z,1.17
2017-11-27T22:07:55.019Z,1.50
2017-11-27T22:10:25.803Z,1.40
2017-11-27T22:12:56.570Z,1.30
2017-11-27T22:15:27.371Z,1.43
2017-11-27T22:17:58.269Z,1.40
2017-11-27T22:20:29.050Z,1.27
2017-11-27T22:22:59.830Z,1.10
2017-11-27T22:25:30.623Z,1.20
2017-11-27T22:28:01.398Z,1.03
2017-11-27T22:30:32.184Z,1.00
2017-11-27T22:33:02.939Z,1.23
2017-11-27T22:35:33.922Z,1.07
2017-11-27T22:38:04.678Z,1.07
2017-11-27T22:40:35.469Z,0.80
2017-11-27T22:43:06.238Z,1.13
2017-11-27T22:45:36.990Z,1.03
2017-11-27T22:48:07.784Z,1.27
2017-11-27T22:50:38.586Z,0.90
2017-11-27T22:53:09.358Z,0.90
2017-11-27T22:55:40.153Z,1.17
2017-11-27T22:58:10.915Z,1.00
2017-11-27T23:00:41.661Z,1.30
2017-11-27T23:03:12.487Z,1.40
